sensor_id;sensor_type;location;lat;lon;timestamp;temperature;humidity
72591;SHT31;60625;51.212;5.952;2023-06-26T00:02:47;23.66;67.38
72591;SHT31;60625;51.212;5.952;2023-06-26T00:07:48;23.59;67.79
72591;SHT31;60625;51.212;5.952;2023-06-26T00:12:48;23.51;68.39
72591;SHT31;60625;51.212;5.952;2023-06-26T00:17:48;23.42;68.52
72591;SHT31;60625;51.212;5.952;2023-06-26T00:22:51;23.39;68.59
72591;SHT31;60625;51.212;5.952;2023-06-26T00:27:51;23.33;68.63
72591;SHT31;60625;51.212;5.952;2023-06-26T00:32:52;23.31;68.68
72591;SHT31;60625;51.212;5.952;2023-06-26T00:37:52;23.30;68.65
72591;SHT31;60625;51.212;5.952;2023-06-26T00:42:53;23.28;68.75
72591;SHT31;60625;51.212;5.952;2023-06-26T00:47:55;23.28;67.94
72591;SHT31;60625;51.212;5.952;2023-06-26T00:52:56;23.33;67.24
72591;SHT31;60625;51.212;5.952;2023-06-26T00:58:00;23.34;67.11
72591;SHT31;60625;51.212;5.952;2023-06-26T01:03:02;23.33;66.29
72591;SHT31;60625;51.212;5.952;2023-06-26T01:08:02;23.33;65.68
72591;SHT31;60625;51.212;5.952;2023-06-26T01:13:03;23.32;65.40
72591;SHT31;60625;51.212;5.952;2023-06-26T01:18:05;23.30;65.18
72591;SHT31;60625;51.212;5.952;2023-06-26T01:28:49;23.26;64.63
72591;SHT31;60625;51.212;5.952;2023-06-26T01:33:51;23.24;64.36
72591;SHT31;60625;51.212;5.952;2023-06-26T01:38:54;23.20;63.85
72591;SHT31;60625;51.212;5.952;2023-06-26T01:44:08;23.19;63.22
72591;SHT31;60625;51.212;5.952;2023-06-26T01:54:47;23.15;62.44
72591;SHT31;60625;51.212;5.952;2023-06-26T01:59:54;23.13;62.24
72591;SHT31;60625;51.212;5.952;2023-06-26T02:04:56;23.08;62.19
72591;SHT31;60625;51.212;5.952;2023-06-26T02:09:57;23.04;62.22
72591;SHT31;60625;51.212;5.952;2023-06-26T02:14:57;23.00;62.34
72591;SHT31;60625;51.212;5.952;2023-06-26T02:19:58;22.96;62.26
72591;SHT31;60625;51.212;5.952;2023-06-26T02:24:59;22.92;62.29
72591;SHT31;60625;51.212;5.952;2023-06-26T02:29:59;22.87;62.25
72591;SHT31;60625;51.212;5.952;2023-06-26T02:35:00;22.81;62.13
72591;SHT31;60625;51.212;5.952;2023-06-26T02:40:01;22.75;61.74
72591;SHT31;60625;51.212;5.952;2023-06-26T02:45:04;22.70;61.22
72591;SHT31;60625;51.212;5.952;2023-06-26T02:50:06;22.66;61.08
72591;SHT31;60625;51.212;5.952;2023-06-26T02:55:22;22.58;60.27
72591;SHT31;60625;51.212;5.952;2023-06-26T03:00:23;22.51;59.84
72591;SHT31;60625;51.212;5.952;2023-06-26T03:05:25;22.44;59.81
72591;SHT31;60625;51.212;5.952;2023-06-26T03:10:26;22.40;59.94
72591;SHT31;60625;51.212;5.952;2023-06-26T03:15:27;22.37;60.06
72591;SHT31;60625;51.212;5.952;2023-06-26T03:20:28;22.32;60.08
72591;SHT31;60625;51.212;5.952;2023-06-26T03:25:30;22.27;60.03
72591;SHT31;60625;51.212;5.952;2023-06-26T03:30:54;22.20;60.01
72591;SHT31;60625;51.212;5.952;2023-06-26T03:35:54;22.15;60.04
72591;SHT31;60625;51.212;5.952;2023-06-26T03:40:55;22.08;60.13
72591;SHT31;60625;51.212;5.952;2023-06-26T03:45:56;22.01;60.02
72591;SHT31;60625;51.212;5.952;2023-06-26T03:50:57;21.97;60.03
72591;SHT31;60625;51.212;5.952;2023-06-26T03:55:58;21.93;60.01
72591;SHT31;60625;51.212;5.952;2023-06-26T04:00:58;21.89;60.17
72591;SHT31;60625;51.212;5.952;2023-06-26T04:06:00;21.86;60.38
72591;SHT31;60625;51.212;5.952;2023-06-26T04:11:01;21.89;60.75
72591;SHT31;60625;51.212;5.952;2023-06-26T04:16:01;21.85;61.02
72591;SHT31;60625;51.212;5.952;2023-06-26T04:21:06;21.84;60.94
72591;SHT31;60625;51.212;5.952;2023-06-26T04:26:09;21.82;60.78
72591;SHT31;60625;51.212;5.952;2023-06-26T04:31:14;21.84;60.76
72591;SHT31;60625;51.212;5.952;2023-06-26T04:36:14;21.88;60.71
72591;SHT31;60625;51.212;5.952;2023-06-26T04:41:16;21.90;60.87
72591;SHT31;60625;51.212;5.952;2023-06-26T04:46:17;21.99;60.99
72591;SHT31;60625;51.212;5.952;2023-06-26T04:51:17;22.05;60.97
72591;SHT31;60625;51.212;5.952;2023-06-26T04:56:21;22.07;61.11
72591;SHT31;60625;51.212;5.952;2023-06-26T05:01:22;22.05;61.24
72591;SHT31;60625;51.212;5.952;2023-06-26T05:06:22;22.05;61.40
72591;SHT31;60625;51.212;5.952;2023-06-26T05:11:24;22.05;61.62
72591;SHT31;60625;51.212;5.952;2023-06-26T05:16:25;22.06;61.84
72591;SHT31;60625;51.212;5.952;2023-06-26T05:21:25;22.10;61.93
72591;SHT31;60625;51.212;5.952;2023-06-26T05:26:27;22.12;62.06
72591;SHT31;60625;51.212;5.952;2023-06-26T05:31:28;22.13;62.29
72591;SHT31;60625;51.212;5.952;2023-06-26T05:36:35;22.15;62.40
72591;SHT31;60625;51.212;5.952;2023-06-26T05:41:36;22.11;62.58
72591;SHT31;60625;51.212;5.952;2023-06-26T05:46:37;22.09;62.84
72591;SHT31;60625;51.212;5.952;2023-06-26T05:51:38;22.08;63.03
72591;SHT31;60625;51.212;5.952;2023-06-26T05:56:40;22.02;63.22
72591;SHT31;60625;51.212;5.952;2023-06-26T06:01:41;22.01;63.30
72591;SHT31;60625;51.212;5.952;2023-06-26T06:06:41;22.04;63.44
72591;SHT31;60625;51.212;5.952;2023-06-26T06:11:42;22.11;63.47
72591;SHT31;60625;51.212;5.952;2023-06-26T06:16:43;22.20;63.30
72591;SHT31;60625;51.212;5.952;2023-06-26T06:21:43;22.15;63.38
72591;SHT31;60625;51.212;5.952;2023-06-26T06:26:44;22.00;63.78
72591;SHT31;60625;51.212;5.952;2023-06-26T06:31:44;22.02;63.76
72591;SHT31;60625;51.212;5.952;2023-06-26T06:36:46;22.10;63.56
72591;SHT31;60625;51.212;5.952;2023-06-26T06:41:47;22.15;63.40
72591;SHT31;60625;51.212;5.952;2023-06-26T06:46:48;22.22;62.66
72591;SHT31;60625;51.212;5.952;2023-06-26T06:51:48;22.26;61.84
72591;SHT31;60625;51.212;5.952;2023-06-26T06:56:49;22.33;61.72
72591;SHT31;60625;51.212;5.952;2023-06-26T07:01:49;22.39;61.61
72591;SHT31;60625;51.212;5.952;2023-06-26T07:06:50;22.54;61.26
72591;SHT31;60625;51.212;5.952;2023-06-26T07:11:50;22.73;60.41
72591;SHT31;60625;51.212;5.952;2023-06-26T07:16:51;22.81;60.35
72591;SHT31;60625;51.212;5.952;2023-06-26T07:21:51;22.94;59.87
72591;SHT31;60625;51.212;5.952;2023-06-26T07:26:52;23.07;59.38
72591;SHT31;60625;51.212;5.952;2023-06-26T07:31:52;23.27;58.96
72591;SHT31;60625;51.212;5.952;2023-06-26T07:36:53;23.27;58.72
72591;SHT31;60625;51.212;5.952;2023-06-26T07:41:53;23.24;59.04
72591;SHT31;60625;51.212;5.952;2023-06-26T07:46:53;23.26;58.76
72591;SHT31;60625;51.212;5.952;2023-06-26T07:51:54;23.38;58.72
72591;SHT31;60625;51.212;5.952;2023-06-26T07:56:59;23.56;58.33
72591;SHT31;60625;51.212;5.952;2023-06-26T08:02:01;23.80;57.78
72591;SHT31;60625;51.212;5.952;2023-06-26T08:07:02;23.91;57.47
72591;SHT31;60625;51.212;5.952;2023-06-26T08:12:03;24.01;56.83
72591;SHT31;60625;51.212;5.952;2023-06-26T08:17:05;24.01;56.31
72591;SHT31;60625;51.212;5.952;2023-06-26T08:22:05;24.02;56.15
72591;SHT31;60625;51.212;5.952;2023-06-26T08:27:06;24.06;55.88
72591;SHT31;60625;51.212;5.952;2023-06-26T08:32:08;24.23;55.48
72591;SHT31;60625;51.212;5.952;2023-06-26T08:37:08;24.52;54.86
72591;SHT31;60625;51.212;5.952;2023-06-26T08:42:09;24.69;54.46
72591;SHT31;60625;51.212;5.952;2023-06-26T08:47:10;24.87;54.00
72591;SHT31;60625;51.212;5.952;2023-06-26T08:52:28;25.07;53.35
72591;SHT31;60625;51.212;5.952;2023-06-26T08:57:35;25.12;52.37
72591;SHT31;60625;51.212;5.952;2023-06-26T09:02:37;25.05;52.42
72591;SHT31;60625;51.212;5.952;2023-06-26T09:07:38;24.93;52.67
72591;SHT31;60625;51.212;5.952;2023-06-26T09:12:38;24.94;51.97
72591;SHT31;60625;51.212;5.952;2023-06-26T09:17:40;25.26;51.20
72591;SHT31;60625;51.212;5.952;2023-06-26T09:22:42;25.39;50.90
72591;SHT31;60625;51.212;5.952;2023-06-26T09:27:47;25.69;50.31
72591;SHT31;60625;51.212;5.952;2023-06-26T09:32:48;25.85;49.29
72591;SHT31;60625;51.212;5.952;2023-06-26T09:37:54;25.44;48.49
72591;SHT31;60625;51.212;5.952;2023-06-26T09:43:01;25.24;47.08
72591;SHT31;60625;51.212;5.952;2023-06-26T09:48:06;25.39;46.56
72591;SHT31;60625;51.212;5.952;2023-06-26T09:53:13;25.67;45.68
72591;SHT31;60625;51.212;5.952;2023-06-26T09:58:14;26.09;45.00
72591;SHT31;60625;51.212;5.952;2023-06-26T10:03:17;26.34;44.26
72591;SHT31;60625;51.212;5.952;2023-06-26T10:08:18;26.35;44.38
72591;SHT31;60625;51.212;5.952;2023-06-26T10:13:20;26.27;42.99
72591;SHT31;60625;51.212;5.952;2023-06-26T10:18:27;25.92;43.49
72591;SHT31;60625;51.212;5.952;2023-06-26T10:23:30;25.60;45.11
72591;SHT31;60625;51.212;5.952;2023-06-26T10:28:32;25.55;45.28
72591;SHT31;60625;51.212;5.952;2023-06-26T10:33:33;25.89;44.45
72591;SHT31;60625;51.212;5.952;2023-06-26T10:38:51;26.29;44.19
72591;SHT31;60625;51.212;5.952;2023-06-26T10:44:06;26.64;43.71
72591;SHT31;60625;51.212;5.952;2023-06-26T10:49:07;26.62;40.80
72591;SHT31;60625;51.212;5.952;2023-06-26T10:54:13;26.56;39.54
72591;SHT31;60625;51.212;5.952;2023-06-26T10:59:19;26.43;40.09
72591;SHT31;60625;51.212;5.952;2023-06-26T11:04:35;26.35;40.16
72591;SHT31;60625;51.212;5.952;2023-06-26T11:09:53;26.65;36.60
72591;SHT31;60625;51.212;5.952;2023-06-26T11:15:15;26.72;36.15
72591;SHT31;60625;51.212;5.952;2023-06-26T11:20:17;26.73;35.03
72591;SHT31;60625;51.212;5.952;2023-06-26T11:25:19;26.53;35.28
72591;SHT31;60625;51.212;5.952;2023-06-26T11:30:23;26.48;36.02
72591;SHT31;60625;51.212;5.952;2023-06-26T11:35:25;26.44;34.21
72591;SHT31;60625;51.212;5.952;2023-06-26T11:40:33;26.63;34.24
72591;SHT31;60625;51.212;5.952;2023-06-26T11:45:37;26.72;34.56
72591;SHT31;60625;51.212;5.952;2023-06-26T11:50:40;26.70;33.34
72591;SHT31;60625;51.212;5.952;2023-06-26T11:55:41;26.80;33.41
72591;SHT31;60625;51.212;5.952;2023-06-26T12:00:47;26.90;32.07
72591;SHT31;60625;51.212;5.952;2023-06-26T12:05:48;26.94;30.97
72591;SHT31;60625;51.212;5.952;2023-06-26T12:10:51;26.94;31.45
72591;SHT31;60625;51.212;5.952;2023-06-26T12:15:52;27.16;32.06
72591;SHT31;60625;51.212;5.952;2023-06-26T12:20:52;27.35;32.56
72591;SHT31;60625;51.212;5.952;2023-06-26T12:25:53;27.24;32.40
72591;SHT31;60625;51.212;5.952;2023-06-26T12:36:20;27.17;32.52
72591;SHT31;60625;51.212;5.952;2023-06-26T12:41:23;27.02;32.88
72591;SHT31;60625;51.212;5.952;2023-06-26T12:46:34;26.76;32.02
72591;SHT31;60625;51.212;5.952;2023-06-26T12:51:35;26.67;32.19
72591;SHT31;60625;51.212;5.952;2023-06-26T12:56:36;26.81;32.64
72591;SHT31;60625;51.212;5.952;2023-06-26T13:01:37;26.98;32.19
72591;SHT31;60625;51.212;5.952;2023-06-26T13:06:38;27.06;31.51
72591;SHT31;60625;51.212;5.952;2023-06-26T13:11:39;26.99;32.76
72591;SHT31;60625;51.212;5.952;2023-06-26T13:16:39;27.06;33.16
72591;SHT31;60625;51.212;5.952;2023-06-26T13:21:40;27.06;34.43
72591;SHT31;60625;51.212;5.952;2023-06-26T13:26:42;26.94;35.24
72591;SHT31;60625;51.212;5.952;2023-06-26T13:31:42;26.48;35.88
72591;SHT31;60625;51.212;5.952;2023-06-26T13:36:43;26.09;36.42
72591;SHT31;60625;51.212;5.952;2023-06-26T13:41:43;26.25;35.81
72591;SHT31;60625;51.212;5.952;2023-06-26T13:46:45;26.40;34.74
72591;SHT31;60625;51.212;5.952;2023-06-26T13:51:45;26.51;34.97
72591;SHT31;60625;51.212;5.952;2023-06-26T13:56:47;26.51;35.88
72591;SHT31;60625;51.212;5.952;2023-06-26T14:01:47;26.40;35.93
72591;SHT31;60625;51.212;5.952;2023-06-26T14:06:48;26.18;35.80
72591;SHT31;60625;51.212;5.952;2023-06-26T14:11:48;26.00;37.16
72591;SHT31;60625;51.212;5.952;2023-06-26T14:16:49;25.91;37.35
72591;SHT31;60625;51.212;5.952;2023-06-26T14:21:50;25.73;37.04
72591;SHT31;60625;51.212;5.952;2023-06-26T14:26:50;25.81;35.97
72591;SHT31;60625;51.212;5.952;2023-06-26T14:31:51;26.03;34.69
72591;SHT31;60625;51.212;5.952;2023-06-26T14:36:51;26.14;34.99
72591;SHT31;60625;51.212;5.952;2023-06-26T14:41:52;25.95;34.81
72591;SHT31;60625;51.212;5.952;2023-06-26T14:46:52;25.71;35.45
72591;SHT31;60625;51.212;5.952;2023-06-26T14:51:53;25.55;36.46
72591;SHT31;60625;51.212;5.952;2023-06-26T14:56:53;25.48;35.99
72591;SHT31;60625;51.212;5.952;2023-06-26T15:01:54;25.55;36.06
72591;SHT31;60625;51.212;5.952;2023-06-26T15:06:56;25.50;36.03
72591;SHT31;60625;51.212;5.952;2023-06-26T15:11:58;25.55;35.64
72591;SHT31;60625;51.212;5.952;2023-06-26T15:16:58;25.45;35.36
72591;SHT31;60625;51.212;5.952;2023-06-26T15:21:58;25.39;36.00
72591;SHT31;60625;51.212;5.952;2023-06-26T15:26:59;25.35;35.96
72591;SHT31;60625;51.212;5.952;2023-06-26T15:31:59;25.31;36.41
72591;SHT31;60625;51.212;5.952;2023-06-26T15:37:00;25.32;36.34
72591;SHT31;60625;51.212;5.952;2023-06-26T15:42:00;25.22;36.24
72591;SHT31;60625;51.212;5.952;2023-06-26T15:47:02;25.29;35.65
72591;SHT31;60625;51.212;5.952;2023-06-26T15:52:04;25.26;36.19
72591;SHT31;60625;51.212;5.952;2023-06-26T15:57:05;25.26;36.38
72591;SHT31;60625;51.212;5.952;2023-06-26T16:02:06;25.13;36.16
72591;SHT31;60625;51.212;5.952;2023-06-26T16:07:06;24.99;37.17
72591;SHT31;60625;51.212;5.952;2023-06-26T16:12:07;24.85;37.99
72591;SHT31;60625;51.212;5.952;2023-06-26T16:17:08;24.73;37.87
72591;SHT31;60625;51.212;5.952;2023-06-26T16:22:09;24.53;38.44
72591;SHT31;60625;51.212;5.952;2023-06-26T16:27:09;24.42;38.65
72591;SHT31;60625;51.212;5.952;2023-06-26T16:32:11;24.25;38.85
72591;SHT31;60625;51.212;5.952;2023-06-26T16:37:12;24.14;39.37
72591;SHT31;60625;51.212;5.952;2023-06-26T16:42:12;24.11;39.39
72591;SHT31;60625;51.212;5.952;2023-06-26T16:47:12;24.06;39.64
72591;SHT31;60625;51.212;5.952;2023-06-26T16:52:16;24.05;40.01
72591;SHT31;60625;51.212;5.952;2023-06-26T16:57:17;24.04;39.80
72591;SHT31;60625;51.212;5.952;2023-06-26T17:02:17;23.89;39.47
72591;SHT31;60625;51.212;5.952;2023-06-26T17:07:18;23.81;39.85
72591;SHT31;60625;51.212;5.952;2023-06-26T17:12:19;23.75;40.13
72591;SHT31;60625;51.212;5.952;2023-06-26T17:17:19;23.69;40.65
72591;SHT31;60625;51.212;5.952;2023-06-26T17:22:21;23.65;40.75
72591;SHT31;60625;51.212;5.952;2023-06-26T17:27:23;23.54;41.22
72591;SHT31;60625;51.212;5.952;2023-06-26T17:32:28;23.46;41.38
72591;SHT31;60625;51.212;5.952;2023-06-26T17:37:28;23.49;41.79
72591;SHT31;60625;51.212;5.952;2023-06-26T17:42:29;23.60;41.29
72591;SHT31;60625;51.212;5.952;2023-06-26T17:47:29;23.67;39.65
72591;SHT31;60625;51.212;5.952;2023-06-26T17:52:29;23.68;39.53
72591;SHT31;60625;51.212;5.952;2023-06-26T17:57:30;23.67;39.15
72591;SHT31;60625;51.212;5.952;2023-06-26T18:02:31;23.64;38.81
72591;SHT31;60625;51.212;5.952;2023-06-26T18:07:31;23.66;37.78
72591;SHT31;60625;51.212;5.952;2023-06-26T18:12:31;23.61;37.71
72591;SHT31;60625;51.212;5.952;2023-06-26T18:17:32;23.49;37.41
72591;SHT31;60625;51.212;5.952;2023-06-26T18:22:32;23.39;37.72
72591;SHT31;60625;51.212;5.952;2023-06-26T18:27:33;23.34;38.07
72591;SHT31;60625;51.212;5.952;2023-06-26T18:32:35;23.23;38.67
72591;SHT31;60625;51.212;5.952;2023-06-26T18:37:35;23.14;39.31
72591;SHT31;60625;51.212;5.952;2023-06-26T18:42:36;22.96;39.93
72591;SHT31;60625;51.212;5.952;2023-06-26T18:47:36;22.83;40.53
72591;SHT31;60625;51.212;5.952;2023-06-26T18:52:37;22.78;40.74
72591;SHT31;60625;51.212;5.952;2023-06-26T18:57:37;22.67;41.17
72591;SHT31;60625;51.212;5.952;2023-06-26T19:02:38;22.58;41.51
72591;SHT31;60625;51.212;5.952;2023-06-26T19:07:38;22.58;42.01
72591;SHT31;60625;51.212;5.952;2023-06-26T19:12:39;22.57;42.21
72591;SHT31;60625;51.212;5.952;2023-06-26T19:17:39;22.53;42.19
72591;SHT31;60625;51.212;5.952;2023-06-26T19:22:39;22.43;42.40
72591;SHT31;60625;51.212;5.952;2023-06-26T19:27:40;22.37;42.48
72591;SHT31;60625;51.212;5.952;2023-06-26T19:32:41;22.30;42.50
72591;SHT31;60625;51.212;5.952;2023-06-26T19:37:42;22.21;42.69
72591;SHT31;60625;51.212;5.952;2023-06-26T19:42:42;22.14;42.92
72591;SHT31;60625;51.212;5.952;2023-06-26T19:47:42;22.05;43.14
72591;SHT31;60625;51.212;5.952;2023-06-26T19:52:43;21.94;43.55
72591;SHT31;60625;51.212;5.952;2023-06-26T19:57:46;21.82;43.88
72591;SHT31;60625;51.212;5.952;2023-06-26T20:02:48;21.63;44.38
72591;SHT31;60625;51.212;5.952;2023-06-26T20:07:49;21.53;44.88
72591;SHT31;60625;51.212;5.952;2023-06-26T20:12:49;21.47;45.16
72591;SHT31;60625;51.212;5.952;2023-06-26T20:17:49;21.40;45.41
72591;SHT31;60625;51.212;5.952;2023-06-26T20:22:50;21.26;45.67
72591;SHT31;60625;51.212;5.952;2023-06-26T20:27:50;21.14;46.10
72591;SHT31;60625;51.212;5.952;2023-06-26T20:32:51;20.99;46.58
72591;SHT31;60625;51.212;5.952;2023-06-26T20:37:51;20.80;47.45
72591;SHT31;60625;51.212;5.952;2023-06-26T20:42:52;20.48;50.51
72591;SHT31;60625;51.212;5.952;2023-06-26T20:47:53;20.27;51.03
72591;SHT31;60625;51.212;5.952;2023-06-26T20:52:55;20.21;50.74
72591;SHT31;60625;51.212;5.952;2023-06-26T20:57:56;20.17;50.88
72591;SHT31;60625;51.212;5.952;2023-06-26T21:02:57;20.16;50.42
72591;SHT31;60625;51.212;5.952;2023-06-26T21:07:58;20.15;50.32
72591;SHT31;60625;51.212;5.952;2023-06-26T21:12:59;20.03;50.74
72591;SHT31;60625;51.212;5.952;2023-06-26T21:18:00;19.72;53.21
72591;SHT31;60625;51.212;5.952;2023-06-26T21:23:01;19.53;53.13
72591;SHT31;60625;51.212;5.952;2023-06-26T21:28:01;19.48;52.86
72591;SHT31;60625;51.212;5.952;2023-06-26T21:33:02;19.49;53.60
72591;SHT31;60625;51.212;5.952;2023-06-26T21:38:02;19.52;52.92
72591;SHT31;60625;51.212;5.952;2023-06-26T21:43:03;19.49;52.81
72591;SHT31;60625;51.212;5.952;2023-06-26T21:48:05;19.40;53.06
72591;SHT31;60625;51.212;5.952;2023-06-26T21:53:06;19.39;53.32
72591;SHT31;60625;51.212;5.952;2023-06-26T21:58:06;19.38;53.42
72591;SHT31;60625;51.212;5.952;2023-06-26T22:03:07;19.33;53.55
72591;SHT31;60625;51.212;5.952;2023-06-26T22:08:08;19.28;53.85
72591;SHT31;60625;51.212;5.952;2023-06-26T22:13:08;19.23;53.97
72591;SHT31;60625;51.212;5.952;2023-06-26T22:18:09;19.16;54.35
72591;SHT31;60625;51.212;5.952;2023-06-26T22:23:09;18.97;56.24
72591;SHT31;60625;51.212;5.952;2023-06-26T22:28:10;18.81;57.10
72591;SHT31;60625;51.212;5.952;2023-06-26T22:33:10;18.73;57.24
72591;SHT31;60625;51.212;5.952;2023-06-26T22:38:11;18.71;56.33
72591;SHT31;60625;51.212;5.952;2023-06-26T22:43:11;18.71;55.60
72591;SHT31;60625;51.212;5.952;2023-06-26T22:48:12;18.65;55.43
72591;SHT31;60625;51.212;5.952;2023-06-26T22:53:12;18.60;55.28
72591;SHT31;60625;51.212;5.952;2023-06-26T22:58:17;18.55;55.47
72591;SHT31;60625;51.212;5.952;2023-06-26T23:03:18;18.50;55.60
72591;SHT31;60625;51.212;5.952;2023-06-26T23:08:19;18.50;55.67
72591;SHT31;60625;51.212;5.952;2023-06-26T23:13:19;18.49;55.69
72591;SHT31;60625;51.212;5.952;2023-06-26T23:18:20;18.42;55.88
72591;SHT31;60625;51.212;5.952;2023-06-26T23:23:21;18.35;56.22
72591;SHT31;60625;51.212;5.952;2023-06-26T23:28:21;18.30;56.60
72591;SHT31;60625;51.212;5.952;2023-06-26T23:33:22;18.22;56.88
72591;SHT31;60625;51.212;5.952;2023-06-26T23:38:22;18.16;57.18
72591;SHT31;60625;51.212;5.952;2023-06-26T23:43:24;18.08;57.45
72591;SHT31;60625;51.212;5.952;2023-06-26T23:48:25;18.03;57.79
72591;SHT31;60625;51.212;5.952;2023-06-26T23:53:26;18.03;57.97
72591;SHT31;60625;51.212;5.952;2023-06-26T23:58:26;18.05;58.19
